Time;durP1;ratioP1;P1;durP2;ratioP2;P2;SDS_P1;SDS_P2;PMS_P1;PMS_P2;Temp;Humidity;BMP_temperature;BMP_pressure;BME280_temperature;BME280_humidity;BME280_pressure;Samples;Min_cycle;Max_cycle;Signal;HPM_P1;HPM_P2
2024/01/30 01:04:03;;;;;;;;;;;;;;;;;;5055424;28;20352;-69
2024/01/30 01:06:29;;;;;;;;;;;;;;;;;;5054569;28;19943;-69
2024/01/30 01:08:55;;;;;;;;;;;;;;;;;;5055171;28;19915;-69
2024/01/30 01:11:22;;;;;;;;;;;;;;;;;;5054757;28;20415;-69
2024/01/30 01:13:48;;;;;;;;;;;;;;;;;;5054846;28;19912;-69
2024/01/30 01:16:14;;;;;;;;;;;;;;;;;;5054415;28;19915;-69
2024/01/30 01:18:40;;;;;;;;;;;;;;;;;;5054680;28;20379;-69
2024/01/30 01:21:07;;;;;;;;;;;;;;;;;;5054277;28;19909;-69
2024/01/30 01:23:33;;;;;;;;;;;;;;;;;;5053964;28;19913;-69
2024/01/30 01:26:00;;;;;;;;;;;;;;;;;;5054363;28;19978;-69
2024/01/30 01:28:27;;;;;;;;;;;;;;;;;;5054613;28;19916;-69
2024/01/30 01:30:53;;;;;;;;;;;;;;;;;;5054361;28;19919;-69
2024/01/30 01:33:19;;;;;;;;;;;;;;;;;;5053190;28;19909;-69
2024/01/30 01:35:45;;;;;;;;;;;;;;;;;;5054016;28;19978;-69
2024/01/30 01:38:11;;;;;;;;;;;;;;;;;;5054035;28;19908;-68
2024/01/30 01:40:39;;;;;;;;;;;;;;;;;;5054096;28;20279;-69
2024/01/30 01:43:05;;;;;;;;;;;;;;;;;;5054384;28;19909;-69
2024/01/30 01:45:31;;;;;;;;;;;;;;;;;;5053886;28;19913;-69
2024/01/30 01:47:58;;;;;;;;;;;;;;;;;;5053986;28;19908;-69
2024/01/30 01:50:26;;;;;;;;;;;;;;;;;;5053502;28;19909;-69
2024/01/30 01:52:52;;;;;;;;;;;;;;;;;;5054290;28;19913;-69
2024/01/30 01:55:21;;;;;;;;;;;;;;;;;;5054038;28;19961;-69
2024/01/30 01:57:47;;;;;;;;;;;;;;;;;;5053618;28;20354;-69
2024/01/30 02:00:13;;;;;;;;;;;;;;;;;;5053584;28;19913;-69
2024/01/30 02:02:39;;;;;;;;;;;;;;;;;;5074046;28;20369;-70
2024/01/30 02:05:06;;;;;;;;;;;;;;;;;;5093529;28;20330;-68
2024/01/30 02:07:32;;;;;;;;;;;;;;;;;;5093670;28;20373;-69
2024/01/30 02:09:58;;;;;;;;;;;;;;;;;;5093968;28;19918;-69
2024/01/30 02:12:24;;;;;;;;;;;;;;;;;;5092904;28;19913;-69
2024/01/30 02:14:50;;;;;;;;;;;;;;;;;;5093556;28;19912;-69
2024/01/30 02:17:17;;;;;;;;;;;;;;;;;;5093609;28;19935;-69
2024/01/30 02:19:43;;;;;;;;;;;;;;;;;;5093230;28;19908;-69
2024/01/30 02:22:09;;;;;;;;;;;;;;;;;;5093433;28;20286;-69
2024/01/30 02:24:35;;;;;;;;;;;;;;;;;;5093896;28;19914;-69
2024/01/30 02:27:02;;;;;;;;;;;;;;;;;;5093471;28;19916;-69
2024/01/30 02:29:28;;;;;;;;;;;;;;;;;;5093436;28;19915;-69
2024/01/30 02:31:54;;;;;;;;;;;;;;;;;;5092233;28;19908;-68
2024/01/30 02:34:21;;;;;;;;;;;;;;;;;;5125573;27;19912;-69
2024/01/30 02:36:47;;;;;;;;;;;;;;;;;;5092031;28;19908;-69
2024/01/30 02:39:13;;;;;;;;;;;;;;;;;;5093676;28;19916;-69
2024/01/30 02:41:39;;;;;;;;;;;;;;;;;;5093686;28;19908;-69
2024/01/30 02:44:05;;;;;;;;;;;;;;;;;;5093094;28;19933;-69
2024/01/30 02:46:31;;;;;;;;;;;;;;;;;;5093217;28;19916;-69
2024/01/30 02:48:58;;;;;;;;;;;;;;;;;;5092809;28;19969;-69
2024/01/30 02:51:24;;;;;;;;;;;;;;;;;;5093175;28;19912;-68
2024/01/30 02:53:50;;;;;;;;;;;;;;;;;;5091977;28;19961;-69
2024/01/30 02:56:16;;;;;;;;;;;;;;;;;;5093038;28;19912;-69
2024/01/30 02:58:42;;;;;;;;;;;;;;;;;;5092861;28;19915;-69
2024/01/30 03:01:08;;;;;;;;;;;;;;;;;;5093399;28;19912;-69
2024/01/30 03:03:35;;;;;;;;;;;;;;;;;;5092431;28;19924;-68
2024/01/30 03:06:02;;;;;;;;;;;;;;;;;;5093012;28;19961;-68
2024/01/30 03:08:28;;;;;;;;;;;;;;;;;;5093446;28;19919;-68
2024/01/30 03:10:54;;;;;;;;;;;;;;;;;;5093189;28;19915;-69
2024/01/30 03:13:20;;;;;;;;;;;;;;;;;;5093071;28;19916;-69
2024/01/30 03:15:46;;;;;;;;;;;;;;;;;;5093023;28;19953;-69
2024/01/30 03:18:13;;;;;;;;;;;;;;;;;;5092354;28;19912;-69
2024/01/30 03:20:39;;;;;;;;;;;;;;;;;;5092902;28;20277;-69
2024/01/30 03:23:05;;;;;;;;;;;;;;;;;;5092912;28;19908;-69
2024/01/30 03:25:31;;;;;;;;;;;;;;;;;;5093384;28;20276;-69
2024/01/30 03:27:57;;;;;;;;;;;;;;;;;;5092700;28;19916;-69
2024/01/30 03:30:24;;;;;;;;;;;;;;;;;;5092807;28;19908;-69
2024/01/30 03:32:50;;;;;;;;;;;;;;;;;;5092528;28;19908;-69
2024/01/30 03:35:16;;;;;;;;;;;;;;;;;;5092712;28;19908;-69
2024/01/30 03:37:42;;;;;;;;;;;;;;;;;;5092987;28;19912;-69
2024/01/30 03:40:08;;;;;;;;;;;;;;;;;;5092963;28;19915;-69
2024/01/30 03:42:34;;;;;;;;;;;;;;;;;;5092717;28;19918;-69
2024/01/30 03:45:01;;;;;;;;;;;;;;;;;;5093142;28;19965;-68
2024/01/30 03:47:27;;;;;;;;;;;;;;;;;;5095976;28;19923;-69
2024/01/30 03:49:53;;;;;;;;;;;;;;;;;;5095382;28;20357;-69
2024/01/30 03:52:19;;;;;;;;;;;;;;;;;;5096657;28;19908;-69
2024/01/30 03:54:45;;;;;;;;;;;;;;;;;;5096759;28;19915;-69
2024/01/30 03:57:12;;;;;;;;;;;;;;;;;;5096641;28;19908;-69
2024/01/30 03:59:38;;;;;;;;;;;;;;;;;;5096627;28;19919;-69
2024/01/30 04:02:04;;;;;;;;;;;;;;;;;;5095992;28;19920;-69
2024/01/30 04:04:30;;;;;;;;;;;;;;;;;;5096213;28;19908;-69
2024/01/30 04:06:56;;;;;;;;;;;;;;;;;;5096066;28;19924;-69
2024/01/30 04:09:23;;;;;;;;;;;;;;;;;;5096097;28;20420;-69
2024/01/30 04:11:49;;;;;;;;;;;;;;;;;;5096209;28;20323;-69
2024/01/30 04:14:15;;;;;;;;;;;;;;;;;;5096045;28;19915;-69
2024/01/30 04:16:41;;;;;;;;;;;;;;;;;;5094647;28;19973;-69
2024/01/30 04:19:07;;;;;;;;;;;;;;;;;;5096329;28;19908;-69
2024/01/30 04:21:33;;;;;;;;;;;;;;;;;;5095972;28;20361;-70
2024/01/30 04:24:00;;;;;;;;;;;;;;;;;;5096007;28;19908;-69
2024/01/30 04:26:26;;;;;;;;;;;;;;;;;;5095623;28;20373;-69
2024/01/30 04:28:52;;;;;;;;;;;;;;;;;;5095822;28;19914;-69
2024/01/30 04:31:18;;;;;;;;;;;;;;;;;;5095322;28;19914;-69
2024/01/30 04:33:45;;;;;;;;;;;;;;;;;;5128586;27;19912;-69
2024/01/30 04:36:11;;;;;;;;;;;;;;;;;;5095718;28;19908;-69
2024/01/30 04:38:37;;;;;;;;;;;;;;;;;;5095666;28;19908;-69
2024/01/30 04:41:04;;;;;;;;;;;;;;;;;;5095461;28;19915;-69
2024/01/30 04:43:30;;;;;;;;;;;;;;;;;;5095841;28;19908;-69
2024/01/30 04:45:56;;;;;;;;;;;;;;;;;;5095110;28;19908;-69
2024/01/30 04:48:23;;;;;;;;;;;;;;;;;;5095270;28;19908;-69
2024/01/30 04:50:49;;;;;;;;;;;;;;;;;;5128583;27;19919;-69
2024/01/30 04:53:15;;;;;;;;;;;;;;;;;;5095348;28;19908;-69
2024/01/30 04:55:41;;;;;;;;;;;;;;;;;;5095273;28;19921;-69
2024/01/30 04:58:07;;;;;;;;;;;;;;;;;;5095007;28;19915;-69
2024/01/30 05:00:33;;;;;;;;;;;;;;;;;;5094764;28;19912;-69
2024/01/30 05:03:00;;;;;;;;;;;;;;;;;;5094915;28;19927;-69
2024/01/30 05:05:26;;;;;;;;;;;;;;;;;;5127860;27;19941;-69
2024/01/30 05:07:52;;;;;;;;;;;;;;;;;;5095104;28;19924;-69
2024/01/30 05:10:18;;;;;;;;;;;;;;;;;;5094978;28;19908;-69
2024/01/30 05:12:44;;;;;;;;;;;;;;;;;;5094956;28;19908;-69
2024/01/30 05:15:10;;;;;;;;;;;;;;;;;;5094400;28;19912;-69
2024/01/30 05:17:37;;;;;;;;;;;;;;;;;;5094681;28;20368;-69
2024/01/30 05:20:04;;;;;;;;;;;;;;;;;;5095034;28;19989;-69
2024/01/30 05:22:30;;;;;;;;;;;;;;;;;;5094633;28;19933;-69
2024/01/30 05:24:57;;;;;;;;;;;;;;;;;;5127875;27;19916;-69
2024/01/30 05:27:23;;;;;;;;;;;;;;;;;;5094015;28;19916;-69
2024/01/30 05:29:49;;;;;;;;;;;;;;;;;;5094767;28;19908;-69
2024/01/30 05:32:15;;;;;;;;;;;;;;;;;;5094363;28;19908;-69
2024/01/30 05:34:42;;;;;;;;;;;;;;;;;;5094508;28;20372;-69
2024/01/30 05:37:08;;;;;;;;;;;;;;;;;;5094845;28;19961;-69
2024/01/30 05:39:35;;;;;;;;;;;;;;;;;;5094448;28;19908;-69
2024/01/30 05:42:01;;;;;;;;;;;;;;;;;;5094010;28;19937;-69
2024/01/30 05:44:27;;;;;;;;;;;;;;;;;;5094565;28;19908;-69
2024/01/30 05:46:54;;;;;;;;;;;;;;;;;;5094232;28;19916;-69
2024/01/30 05:49:20;;;;;;;;;;;;;;;;;;5094148;28;19908;-69
2024/01/30 05:51:46;;;;;;;;;;;;;;;;;;5127116;27;20365;-69
2024/01/30 05:54:12;;;;;;;;;;;;;;;;;;5094125;28;19912;-69
2024/01/30 05:56:38;;;;;;;;;;;;;;;;;;5093682;28;19908;-69
2024/01/30 05:59:04;;;;;;;;;;;;;;;;;;5094064;28;20270;-69
2024/01/30 06:01:31;;;;;;;;;;;;;;;;;;5093624;28;19908;-69
2024/01/30 06:03:57;;;;;;;;;;;;;;;;;;5094067;28;19915;-69
2024/01/30 06:06:23;;;;;;;;;;;;;;;;;;5093707;28;19923;-69
2024/01/30 06:08:49;;;;;;;;;;;;;;;;;;5093326;28;19908;-69
2024/01/30 06:11:16;;;;;;;;;;;;;;;;;;5093396;28;19912;-69
2024/01/30 06:13:42;;;;;;;;;;;;;;;;;;5127049;27;19912;-69
2024/01/30 06:16:08;;;;;;;;;;;;;;;;;;5093608;28;19915;-69
2024/01/30 06:18:34;;;;;;;;;;;;;;;;;;5092369;28;19916;-69
2024/01/30 06:21:00;;;;;;;;;;;;;;;;;;5093677;28;19919;-69
2024/01/30 06:23:26;;;;;;;;;;;;;;;;;;5092346;28;19961;-69
2024/01/30 06:25:53;;;;;;;;;;;;;;;;;;5093331;28;19912;-69
2024/01/30 06:28:19;;;;;;;;;;;;;;;;;;5093315;28;19981;-69
2024/01/30 06:30:45;;;;;;;;;;;;;;;;;;5093681;28;19908;-69
2024/01/30 06:33:11;;;;;;;;;;;;;;;;;;5093468;28;20280;-69
2024/01/30 06:35:40;;;;;;;;;;;;;;;;;;5093354;28;19983;-68
2024/01/30 06:38:06;;;;;;;;;;;;;;;;;;5093192;28;19908;-69
2024/01/30 06:40:32;;;;;;;;;;;;;;;;;;5093023;28;19912;-69
2024/01/30 06:42:58;;;;;;;;;;;;;;;;;;5093376;28;20415;-69
2024/01/30 06:45:24;;;;;;;;;;;;;;;;;;5091855;28;20350;-69
2024/01/30 06:47:51;;;;;;;;;;;;;;;;;;5091889;28;19916;-69
2024/01/30 06:50:17;;;;;;;;;;;;;;;;;;5093430;28;19908;-69
2024/01/30 06:52:43;;;;;;;;;;;;;;;;;;5093042;28;19908;-69
2024/01/30 06:55:09;;;;;;;;;;;;;;;;;;5092898;28;20246;-69
2024/01/30 06:57:35;;;;;;;;;;;;;;;;;;5093336;28;19915;-68
2024/01/30 07:00:01;;;;;;;;;;;;;;;;;;5092969;28;19915;-69
2024/01/30 07:02:28;;;;;;;;;;;;;;;;;;5092752;28;19927;-69
2024/01/30 07:04:54;;;;;;;;;;;;;;;;;;5093304;28;19908;-69
2024/01/30 07:07:20;;;;;;;;;;;;;;;;;;5092846;28;19916;-69
2024/01/30 07:09:49;;;;;;;;;;;;;;;;;;5092731;28;19908;-69
2024/01/30 07:12:15;;;;;;;;;;;;;;;;;;5092874;28;19915;-69
2024/01/30 07:14:41;;;;;;;;;;;;;;;;;;5092776;28;20433;-69
2024/01/30 07:17:08;;;;;;;;;;;;;;;;;;5086983;28;19918;-71
2024/01/30 07:19:34;;;;;;;;;;;;;;;;;;5089357;28;19923;-69
2024/01/30 07:22:00;;;;;;;;;;;;;;;;;;5086657;28;19919;-70
2024/01/30 07:24:27;;;;;;;;;;;;;;;;;;5089346;28;19913;-69
2024/01/30 07:26:53;;;;;;;;;;;;;;;;;;5094468;28;20316;-69
2024/01/30 07:29:19;;;;;;;;;;;;;;;;;;5095061;28;19914;-69
2024/01/30 07:31:45;;;;;;;;;;;;;;;;;;5096455;28;19915;-69
2024/01/30 07:34:11;;;;;;;;;;;;;;;;;;5094073;28;19912;-70
2024/01/30 07:36:38;;;;;;;;;;;;;;;;;;5095329;28;19915;-70
2024/01/30 07:39:04;;;;;;;;;;;;;;;;;;5095698;28;19933;-70
2024/01/30 07:41:30;;;;;;;;;;;;;;;;;;5093550;28;19912;-70
2024/01/30 07:43:56;;;;;;;;;;;;;;;;;;5095871;28;19908;-70
2024/01/30 07:46:22;;;;;;;;;;;;;;;;;;5087852;28;19924;-71
2024/01/30 07:48:49;;;;;;;;;;;;;;;;;;5096362;28;19918;-70
2024/01/30 07:51:15;;;;;;;;;;;;;;;;;;5094550;28;19916;-70
2024/01/30 07:53:41;;;;;;;;;;;;;;;;;;5095305;28;20292;-70
2024/01/30 07:56:08;;;;;;;;;;;;;;;;;;5093752;28;20342;-70
2024/01/30 07:58:34;;;;;;;;;;;;;;;;;;5094313;28;19914;-69
2024/01/30 08:01:00;;;;;;;;;;;;;;;;;;5095398;28;20395;-70
2024/01/30 08:03:26;;;;;;;;;;;;;;;;;;5094975;28;19926;-70
2024/01/30 08:05:53;;;;;;;;;;;;;;;;;;5105504;28;20423;-70
2024/01/30 08:08:19;;;;;;;;;;;;;;;;;;5095148;28;19924;-69
2024/01/30 08:10:45;;;;;;;;;;;;;;;;;;5085779;28;19908;-69
2024/01/30 08:13:12;;;;;;;;;;;;;;;;;;5088872;28;19912;-69
2024/01/30 08:15:38;;;;;;;;;;;;;;;;;;5092560;28;19938;-69
2024/01/30 08:18:05;;;;;;;;;;;;;;;;;;5090623;28;20301;-70
2024/01/30 08:20:31;;;;;;;;;;;;;;;;;;5090899;28;19916;-70
2024/01/30 08:22:58;;;;;;;;;;;;;;;;;;5092137;28;20409;-70
2024/01/30 08:25:24;;;;;;;;;;;;;;;;;;5079828;28;19922;-70
2024/01/30 08:27:50;;;;;;;;;;;;;;;;;;5091655;28;19920;-69
2024/01/30 08:30:16;;;;;;;;;;;;;;;;;;5094318;28;19969;-69
2024/01/30 08:32:43;;;;;;;;;;;;;;;;;;5082128;28;20372;-70
2024/01/30 08:35:09;;;;;;;;;;;;;;;;;;5127348;27;19908;-69
2024/01/30 08:37:35;;;;;;;;;;;;;;;;;;5091935;28;19919;-70
2024/01/30 08:40:03;;;;;;;;;;;;;;;;;;5092755;28;19912;-70
2024/01/30 08:42:29;;;;;;;;;;;;;;;;;;5093881;28;19907;-69
2024/01/30 08:44:56;;;;;;;;;;;;;;;;;;5092661;28;19920;-70
2024/01/30 08:47:22;;;;;;;;;;;;;;;;;;5089910;28;19973;-70
2024/01/30 08:49:48;;;;;;;;;;;;;;;;;;5091610;28;19914;-69
2024/01/30 08:52:14;;;;;;;;;;;;;;;;;;5092465;28;19912;-70
2024/01/30 08:54:40;;;;;;;;;;;;;;;;;;5091360;28;19965;-69
2024/01/30 08:57:07;;;;;;;;;;;;;;;;;;5093749;28;19912;-70
2024/01/30 08:59:33;;;;;;;;;;;;;;;;;;5092717;28;19908;-70
2024/01/30 09:01:59;;;;;;;;;;;;;;;;;;5089415;28;19923;-70
2024/01/30 09:04:25;;;;;;;;;;;;;;;;;;5074275;28;19916;-70
2024/01/30 09:06:52;;;;;;;;;;;;;;;;;;5093255;28;19961;-70
2024/01/30 09:09:19;;;;;;;;;;;;;;;;;;5094058;28;19916;-70
2024/01/30 09:11:45;;;;;;;;;;;;;;;;;;5092143;28;19934;-69
2024/01/30 09:14:11;;;;;;;;;;;;;;;;;;5092347;28;19957;-69
2024/01/30 09:16:38;;;;;;;;;;;;;;;;;;5126676;27;19908;-69
2024/01/30 09:19:04;;;;;;;;;;;;;;;;;;5117398;27;19908;-69
2024/01/30 09:21:30;;;;;;;;;;;;;;;;;;5076219;28;19919;-69
2024/01/30 09:23:56;;;;;;;;;;;;;;;;;;5090826;28;19915;-70
2024/01/30 09:26:22;;;;;;;;;;;;;;;;;;5093130;28;19920;-70
2024/01/30 09:28:49;;;;;;;;;;;;;;;;;;5091989;28;20369;-70
2024/01/30 09:31:15;;;;;;;;;;;;;;;;;;5092612;28;19916;-70
2024/01/30 09:33:44;;;;;;;;;;;;;;;;;;5091326;28;20380;-70
2024/01/30 09:36:10;;;;;;;;;;;;;;;;;;5090810;28;19913;-70
2024/01/30 09:38:36;;;;;;;;;;;;;;;;;;5087219;28;19952;-70
2024/01/30 09:41:02;;;;;;;;;;;;;;;;;;5091692;28;19908;-70
2024/01/30 09:43:28;;;;;;;;;;;;;;;;;;5112796;28;19908;-70
2024/01/30 09:45:55;;;;;;;;;;;;;;;;;;5098329;28;19909;-70
2024/01/30 09:48:21;;;;;;;;;;;;;;;;;;5092865;28;20000;-70
2024/01/30 09:50:47;;;;;;;;;;;;;;;;;;5092794;28;19908;-69
2024/01/30 09:53:13;;;;;;;;;;;;;;;;;;5093214;28;20385;-70
2024/01/30 09:55:39;;;;;;;;;;;;;;;;;;5073815;28;20300;-70
2024/01/30 09:58:05;;;;;;;;;;;;;;;;;;5086640;28;19908;-69
2024/01/30 10:00:32;;;;;;;;;;;;;;;;;;5091867;28;19931;-70
2024/01/30 10:02:58;;;;;;;;;;;;;;;;;;5084625;28;19965;-69
2024/01/30 10:05:24;;;;;;;;;;;;;;;;;;5090939;28;19920;-70
2024/01/30 10:07:50;;;;;;;;;;;;;;;;;;5090882;28;20294;-68
2024/01/30 10:10:17;;;;;;;;;;;;;;;;;;5081915;28;19939;-69
2024/01/30 10:12:43;;;;;;;;;;;;;;;;;;5085931;28;20312;-70
2024/01/30 10:15:09;;;;;;;;;;;;;;;;;;5096391;28;20028;-69
2024/01/30 10:17:35;;;;;;;;;;;;;;;;;;5103630;28;19911;-69
2024/01/30 10:20:02;;;;;;;;;;;;;;;;;;5095496;28;19908;-69
2024/01/30 10:22:28;;;;;;;;;;;;;;;;;;5089135;28;19926;-69
2024/01/30 10:24:54;;;;;;;;;;;;;;;;;;5090115;28;19916;-69
2024/01/30 10:27:21;;;;;;;;;;;;;;;;;;5087950;28;19920;-69
2024/01/30 10:29:47;;;;;;;;;;;;;;;;;;5087482;28;19916;-70
2024/01/30 10:32:13;;;;;;;;;;;;;;;;;;5085042;28;20425;-70
2024/01/30 10:34:39;;;;;;;;;;;;;;;;;;5092017;28;19914;-70
2024/01/30 10:37:05;;;;;;;;;;;;;;;;;;5091909;28;19912;-70
2024/01/30 10:39:32;;;;;;;;;;;;;;;;;;5091888;28;19915;-70
2024/01/30 10:41:58;;;;;;;;;;;;;;;;;;5099096;28;19914;-71
2024/01/30 10:44:24;;;;;;;;;;;;;;;;;;5090932;28;19919;-70
2024/01/30 10:46:50;;;;;;;;;;;;;;;;;;5078127;28;19920;-69
2024/01/30 10:49:16;;;;;;;;;;;;;;;;;;5071322;28;19915;-70
2024/01/30 10:51:42;;;;;;;;;;;;;;;;;;5076618;28;20395;-70
2024/01/30 10:54:09;;;;;;;;;;;;;;;;;;5091475;28;20369;-70
2024/01/30 10:56:35;;;;;;;;;;;;;;;;;;5090074;28;19912;-70
2024/01/30 10:59:01;;;;;;;;;;;;;;;;;;5090444;28;19926;-70
2024/01/30 11:01:27;;;;;;;;;;;;;;;;;;5089380;28;19908;-70
2024/01/30 11:03:53;;;;;;;;;;;;;;;;;;5076460;28;19942;-70
2024/01/30 11:06:19;;;;;;;;;;;;;;;;;;5090244;28;20299;-70
2024/01/30 11:08:46;;;;;;;;;;;;;;;;;;5089929;28;19920;-70
2024/01/30 11:11:12;;;;;;;;;;;;;;;;;;5078491;28;20350;-70
2024/01/30 11:13:38;;;;;;;;;;;;;;;;;;5083431;28;19934;-70
2024/01/30 11:16:05;;;;;;;;;;;;;;;;;;5070513;28;19913;-70
2024/01/30 11:18:31;;;;;;;;;;;;;;;;;;5084326;28;20369;-70
2024/01/30 11:20:57;;;;;;;;;;;;;;;;;;5074414;28;19922;-70
2024/01/30 11:23:24;;;;;;;;;;;;;;;;;;5070961;28;19912;-70
2024/01/30 11:25:50;;;;;;;;;;;;;;;;;;5071486;28;20354;-70
2024/01/30 11:28:17;;;;;;;;;;;;;;;;;;5086897;28;19948;-70
2024/01/30 11:30:43;;;;;;;;;;;;;;;;;;5086378;28;20396;-70
2024/01/30 11:33:11;;;;;;;;;;;;;;;;;;5087919;28;19908;-70
2024/01/30 11:35:37;;;;;;;;;;;;;;;;;;5091343;28;19938;-69
2024/01/30 11:38:03;;;;;;;;;;;;;;;;;;5090852;28;19912;-69
2024/01/30 11:40:29;;;;;;;;;;;;;;;;;;5091325;28;20388;-69
2024/01/30 11:42:56;;;;;;;;;;;;;;;;;;5091240;28;20346;-69
2024/01/30 11:45:22;;;;;;;;;;;;;;;;;;5090855;28;20304;-70
2024/01/30 11:47:48;;;;;;;;;;;;;;;;;;5088622;28;19924;-68
2024/01/30 11:50:14;;;;;;;;;;;;;;;;;;5091562;28;19908;-68
2024/01/30 11:52:41;;;;;;;;;;;;;;;;;;5091197;28;19908;-69
2024/01/30 11:55:08;;;;;;;;;;;;;;;;;;5073348;28;20456;-69
2024/01/30 11:57:35;;;;;;;;;;;;;;;;;;5071137;28;19908;-69
2024/01/30 12:00:04;;;;;;;;;;;;;;;;;;5070911;28;20383;-70
2024/01/30 12:02:30;;;;;;;;;;;;;;;;;;5071009;28;20309;-69
2024/01/30 12:04:58;;;;;;;;;;;;;;;;;;5070970;28;19930;-69
2024/01/30 12:07:25;;;;;;;;;;;;;;;;;;5073326;28;19917;-70
2024/01/30 12:09:51;;;;;;;;;;;;;;;;;;5083281;28;19912;-70
2024/01/30 12:12:17;;;;;;;;;;;;;;;;;;5075237;28;19919;-70
2024/01/30 12:14:43;;;;;;;;;;;;;;;;;;5082518;28;19915;-70
2024/01/30 12:17:10;;;;;;;;;;;;;;;;;;5094708;28;19926;-69
2024/01/30 12:19:37;;;;;;;;;;;;;;;;;;5093561;28;19918;-69
2024/01/30 12:22:03;;;;;;;;;;;;;;;;;;5074746;28;19908;-70
2024/01/30 12:24:32;;;;;;;;;;;;;;;;;;5074300;28;19915;-69
2024/01/30 12:26:58;;;;;;;;;;;;;;;;;;5074126;28;19920;-70
2024/01/30 12:29:24;;;;;;;;;;;;;;;;;;5074388;28;19909;-70
2024/01/30 12:31:51;;;;;;;;;;;;;;;;;;5073703;28;19908;-70
2024/01/30 12:34:17;;;;;;;;;;;;;;;;;;5086331;28;20341;-70
2024/01/30 12:36:43;;;;;;;;;;;;;;;;;;5074950;28;19920;-70
2024/01/30 12:39:10;;;;;;;;;;;;;;;;;;5094010;28;19908;-70
2024/01/30 12:41:36;;;;;;;;;;;;;;;;;;5091196;28;19923;-71
2024/01/30 12:44:02;;;;;;;;;;;;;;;;;;5093600;28;19908;-70
2024/01/30 12:46:29;;;;;;;;;;;;;;;;;;5103777;28;19952;-70
2024/01/30 12:48:55;;;;;;;;;;;;;;;;;;5093610;28;20432;-70
2024/01/30 12:51:21;;;;;;;;;;;;;;;;;;5086893;28;19912;-71
2024/01/30 12:53:48;;;;;;;;;;;;;;;;;;5094953;28;20357;-70
2024/01/30 12:56:14;;;;;;;;;;;;;;;;;;5094091;28;19908;-70
2024/01/30 12:58:42;;;;;;;;;;;;;;;;;;5093158;28;19916;-70
2024/01/30 13:01:09;;;;;;;;;;;;;;;;;;5092980;28;19922;-71
2024/01/30 13:03:35;;;;;;;;;;;;;;;;;;5091952;28;19920;-70
2024/01/30 13:06:01;;;;;;;;;;;;;;;;;;5093607;28;20303;-70
2024/01/30 13:08:27;;;;;;;;;;;;;;;;;;5091232;28;19920;-70
2024/01/30 13:10:53;;;;;;;;;;;;;;;;;;5109048;27;19922;-70
2024/01/30 13:13:20;;;;;;;;;;;;;;;;;;5077919;28;19914;-70
2024/01/30 13:15:46;;;;;;;;;;;;;;;;;;5080060;28;19916;-70
2024/01/30 13:18:12;;;;;;;;;;;;;;;;;;5087212;28;19915;-70
2024/01/30 13:20:38;;;;;;;;;;;;;;;;;;5077467;28;19912;-70
2024/01/30 13:23:04;;;;;;;;;;;;;;;;;;5092233;28;19916;-70
2024/01/30 13:25:31;;;;;;;;;;;;;;;;;;5092846;28;19919;-69
2024/01/30 13:27:57;;;;;;;;;;;;;;;;;;5085217;28;20486;-70
2024/01/30 13:30:24;;;;;;;;;;;;;;;;;;5093275;28;19912;-70
2024/01/30 13:32:50;;;;;;;;;;;;;;;;;;5091977;28;19908;-70
2024/01/30 13:35:16;;;;;;;;;;;;;;;;;;5085894;28;19918;-68
2024/01/30 13:37:42;;;;;;;;;;;;;;;;;;5072620;28;20270;-68
2024/01/30 13:40:09;;;;;;;;;;;;;;;;;;5081530;28;19909;-70
2024/01/30 13:42:35;;;;;;;;;;;;;;;;;;5092357;28;20288;-69
2024/01/30 13:45:01;;;;;;;;;;;;;;;;;;5091814;28;19912;-69
2024/01/30 13:47:27;;;;;;;;;;;;;;;;;;5092308;28;20432;-69
2024/01/30 13:49:53;;;;;;;;;;;;;;;;;;5091200;28;19909;-70
2024/01/30 13:52:20;;;;;;;;;;;;;;;;;;5090254;28;19976;-69
2024/01/30 13:54:46;;;;;;;;;;;;;;;;;;5092161;28;19908;-70
2024/01/30 13:57:12;;;;;;;;;;;;;;;;;;5092283;28;19908;-70
2024/01/30 13:59:38;;;;;;;;;;;;;;;;;;5092136;28;19916;-70
2024/01/30 14:02:05;;;;;;;;;;;;;;;;;;5092461;28;20403;-70
2024/01/30 14:04:31;;;;;;;;;;;;;;;;;;5082594;28;19962;-69
2024/01/30 14:06:57;;;;;;;;;;;;;;;;;;5091437;28;19930;-70
2024/01/30 14:09:24;;;;;;;;;;;;;;;;;;5081745;28;19920;-70
2024/01/30 14:11:50;;;;;;;;;;;;;;;;;;5086828;28;19912;-70
2024/01/30 14:14:16;;;;;;;;;;;;;;;;;;5091704;28;19912;-70
2024/01/30 14:16:42;;;;;;;;;;;;;;;;;;5091569;28;19916;-70
2024/01/30 14:19:08;;;;;;;;;;;;;;;;;;5091032;28;20010;-70
2024/01/30 14:21:37;;;;;;;;;;;;;;;;;;5090008;28;20140;-70
2024/01/30 14:24:03;;;;;;;;;;;;;;;;;;5092225;28;19908;-70
2024/01/30 14:26:29;;;;;;;;;;;;;;;;;;5090623;28;19957;-70
2024/01/30 14:28:55;;;;;;;;;;;;;;;;;;5091542;28;20436;-69
2024/01/30 14:31:24;;;;;;;;;;;;;;;;;;5091095;28;19916;-69
2024/01/30 14:33:50;;;;;;;;;;;;;;;;;;5090393;28;20369;-70
2024/01/30 14:36:17;;;;;;;;;;;;;;;;;;5093932;28;19921;-70
2024/01/30 14:38:43;;;;;;;;;;;;;;;;;;5089490;28;19915;-70
2024/01/30 14:41:09;;;;;;;;;;;;;;;;;;5091422;28;19913;-70
2024/01/30 14:43:37;;;;;;;;;;;;;;;;;;5085197;28;19980;-69
2024/01/30 14:46:06;;;;;;;;;;;;;;;;;;5078967;28;19919;-70
2024/01/30 14:48:33;;;;;;;;;;;;;;;;;;5071367;28;19966;-69
2024/01/30 14:50:59;;;;;;;;;;;;;;;;;;5070812;28;19919;-70
2024/01/30 14:53:25;;;;;;;;;;;;;;;;;;5086375;28;19909;-70
2024/01/30 14:55:51;;;;;;;;;;;;;;;;;;5079231;28;19912;-69
2024/01/30 14:58:18;;;;;;;;;;;;;;;;;;5075437;28;19920;-70
2024/01/30 15:00:44;;;;;;;;;;;;;;;;;;5083944;28;20294;-70
2024/01/30 15:03:10;;;;;;;;;;;;;;;;;;5087349;28;19920;-70
2024/01/30 15:05:36;;;;;;;;;;;;;;;;;;5078457;27;19916;-70
2024/01/30 15:08:02;;;;;;;;;;;;;;;;;;5070975;28;19920;-69
2024/01/30 15:10:29;;;;;;;;;;;;;;;;;;5089913;28;19908;-70
2024/01/30 15:12:55;;;;;;;;;;;;;;;;;;5087834;28;19926;-70
2024/01/30 15:15:21;;;;;;;;;;;;;;;;;;5091126;28;19963;-69
2024/01/30 15:17:47;;;;;;;;;;;;;;;;;;5079978;28;19909;-69
2024/01/30 15:20:13;;;;;;;;;;;;;;;;;;5086020;28;20020;-70
2024/01/30 15:22:40;;;;;;;;;;;;;;;;;;5089608;28;20019;-70
2024/01/30 15:25:06;;;;;;;;;;;;;;;;;;5091237;27;19919;-69
2024/01/30 15:27:32;;;;;;;;;;;;;;;;;;5091118;28;19933;-70
2024/01/30 15:29:58;;;;;;;;;;;;;;;;;;5091500;28;19953;-70
2024/01/30 15:32:25;;;;;;;;;;;;;;;;;;5090875;28;19914;-70
2024/01/30 15:34:51;;;;;;;;;;;;;;;;;;5105612;28;19914;-70
2024/01/30 15:37:17;;;;;;;;;;;;;;;;;;5072255;28;19908;-70
2024/01/30 15:39:43;;;;;;;;;;;;;;;;;;5071889;28;20375;-69
2024/01/30 15:42:10;;;;;;;;;;;;;;;;;;5093239;28;19912;-70
2024/01/30 15:44:36;;;;;;;;;;;;;;;;;;5094932;28;19912;-70
2024/01/30 15:47:02;;;;;;;;;;;;;;;;;;5094929;28;19920;-70
2024/01/30 15:49:28;;;;;;;;;;;;;;;;;;5094371;28;19919;-70
2024/01/30 15:51:54;;;;;;;;;;;;;;;;;;5092341;28;19985;-70
2024/01/30 15:54:22;;;;;;;;;;;;;;;;;;5082566;28;19908;-69
2024/01/30 15:56:48;;;;;;;;;;;;;;;;;;5093738;28;20273;-68
2024/01/30 15:59:14;;;;;;;;;;;;;;;;;;5092334;28;19908;-69
2024/01/30 16:01:40;;;;;;;;;;;;;;;;;;5093359;28;19922;-69
2024/01/30 16:04:06;;;;;;;;;;;;;;;;;;5092738;28;19925;-69
2024/01/30 16:06:33;;;;;;;;;;;;;;;;;;5126486;27;20509;-70
2024/01/30 16:08:59;;;;;;;;;;;;;;;;;;5092577;28;19916;-69
2024/01/30 16:11:25;;;;;;;;;;;;;;;;;;5089983;28;20450;-70
2024/01/30 16:13:52;;;;;;;;;;;;;;;;;;5084630;28;20401;-69
2024/01/30 16:16:18;;;;;;;;;;;;;;;;;;5094000;28;19969;-70
2024/01/30 16:18:44;;;;;;;;;;;;;;;;;;5090079;28;19920;-68
2024/01/30 16:21:12;;;;;;;;;;;;;;;;;;5075834;28;19942;-70
2024/01/30 16:23:38;;;;;;;;;;;;;;;;;;5083514;28;19922;-70
2024/01/30 16:26:04;;;;;;;;;;;;;;;;;;5091041;28;19920;-70
2024/01/30 16:28:32;;;;;;;;;;;;;;;;;;5115587;27;19920;-70
2024/01/30 16:31:00;;;;;;;;;;;;;;;;;;5081650;28;19942;-71
2024/01/30 16:33:26;;;;;;;;;;;;;;;;;;5083855;28;19920;-69
2024/01/30 16:35:53;;;;;;;;;;;;;;;;;;5095320;28;19912;-69
2024/01/30 16:38:19;;;;;;;;;;;;;;;;;;5092135;28;19915;-69
2024/01/30 16:40:45;;;;;;;;;;;;;;;;;;5093468;28;19912;-70
2024/01/30 16:43:11;;;;;;;;;;;;;;;;;;5093482;28;19909;-69
2024/01/30 16:45:37;;;;;;;;;;;;;;;;;;5092727;28;19918;-70
2024/01/30 16:48:04;;;;;;;;;;;;;;;;;;5094260;28;19923;-70
2024/01/30 16:50:33;;;;;;;;;;;;;;;;;;5092394;28;20290;-70
2024/01/30 16:52:59;;;;;;;;;;;;;;;;;;5073488;28;19919;-69
2024/01/30 16:55:26;;;;;;;;;;;;;;;;;;5073070;28;19930;-69
2024/01/30 16:57:52;;;;;;;;;;;;;;;;;;5085634;28;19914;-70
2024/01/30 17:00:18;;;;;;;;;;;;;;;;;;5098503;28;19918;-70
2024/01/30 17:02:45;;;;;;;;;;;;;;;;;;5073371;28;19924;-70
2024/01/30 17:05:11;;;;;;;;;;;;;;;;;;5093912;28;19958;-70
2024/01/30 17:07:37;;;;;;;;;;;;;;;;;;5093801;28;19920;-69
2024/01/30 17:10:04;;;;;;;;;;;;;;;;;;5092491;28;19956;-70
2024/01/30 17:12:31;;;;;;;;;;;;;;;;;;5094130;28;19930;-69
2024/01/30 17:14:57;;;;;;;;;;;;;;;;;;5093891;28;20683;-69
2024/01/30 17:17:23;;;;;;;;;;;;;;;;;;5089768;28;20381;-70
2024/01/30 17:19:49;;;;;;;;;;;;;;;;;;5073676;28;19915;-70
2024/01/30 17:22:18;;;;;;;;;;;;;;;;;;5073633;28;19912;-69
2024/01/30 17:24:44;;;;;;;;;;;;;;;;;;5073427;28;19912;-69
2024/01/30 17:27:10;;;;;;;;;;;;;;;;;;5073691;28;19921;-69
2024/01/30 17:29:36;;;;;;;;;;;;;;;;;;5073422;28;19909;-69
2024/01/30 17:32:04;;;;;;;;;;;;;;;;;;5073402;28;19915;-69
2024/01/30 17:34:30;;;;;;;;;;;;;;;;;;5091947;28;19914;-69
2024/01/30 17:36:56;;;;;;;;;;;;;;;;;;5093373;28;19918;-69
2024/01/30 17:39:22;;;;;;;;;;;;;;;;;;5093310;28;19977;-69
2024/01/30 17:41:49;;;;;;;;;;;;;;;;;;5082105;28;20334;-70